sensor_id;sensor_type;location;lat;lon;timestamp;temperature;humidity
736;DHT22;352;48.626;9.238;2023-02-15T00:01:05;1.90;99.90
736;DHT22;352;48.626;9.238;2023-02-15T00:03:34;1.90;99.90
736;DHT22;352;48.626;9.238;2023-02-15T00:06:04;1.80;99.90
736;DHT22;352;48.626;9.238;2023-02-15T00:11:11;1.80;99.90
736;DHT22;352;48.626;9.238;2023-02-15T00:13:38;1.80;99.90
736;DHT22;352;48.626;9.238;2023-02-15T00:16:12;1.80;99.90
736;DHT22;352;48.626;9.238;2023-02-15T00:18:39;1.80;99.90
736;DHT22;352;48.626;9.238;2023-02-15T00:21:10;1.70;99.90
736;DHT22;352;48.626;9.238;2023-02-15T00:23:37;1.80;99.90
736;DHT22;352;48.626;9.238;2023-02-15T00:26:11;1.70;99.90
736;DHT22;352;48.626;9.238;2023-02-15T00:28:38;1.70;99.90
736;DHT22;352;48.626;9.238;2023-02-15T00:31:06;1.70;99.90
736;DHT22;352;48.626;9.238;2023-02-15T00:33:33;1.70;99.90
736;DHT22;352;48.626;9.238;2023-02-15T00:36:01;1.70;99.90
736;DHT22;352;48.626;9.238;2023-02-15T00:38:30;1.60;99.90
736;DHT22;352;48.626;9.238;2023-02-15T00:41:00;1.50;99.90
736;DHT22;352;48.626;9.238;2023-02-15T00:43:27;1.60;99.90
736;DHT22;352;48.626;9.238;2023-02-15T00:45:55;1.50;99.90
736;DHT22;352;48.626;9.238;2023-02-15T00:48:21;1.50;99.90
736;DHT22;352;48.626;9.238;2023-02-15T00:50:51;1.50;99.90
736;DHT22;352;48.626;9.238;2023-02-15T00:55:47;1.50;99.90
736;DHT22;352;48.626;9.238;2023-02-15T00:58:15;1.40;99.90
736;DHT22;352;48.626;9.238;2023-02-15T01:00:43;1.50;99.90
736;DHT22;352;48.626;9.238;2023-02-15T01:03:11;1.50;99.90
736;DHT22;352;48.626;9.238;2023-02-15T01:05:38;1.50;99.90
736;DHT22;352;48.626;9.238;2023-02-15T01:08:05;1.50;99.90
736;DHT22;352;48.626;9.238;2023-02-15T01:10:33;1.50;99.90
736;DHT22;352;48.626;9.238;2023-02-15T01:13:02;1.50;99.90
736;DHT22;352;48.626;9.238;2023-02-15T01:15:29;1.50;99.90
736;DHT22;352;48.626;9.238;2023-02-15T01:17:56;1.50;99.90
736;DHT22;352;48.626;9.238;2023-02-15T01:20:25;1.50;99.90
736;DHT22;352;48.626;9.238;2023-02-15T01:22:54;1.50;99.90
736;DHT22;352;48.626;9.238;2023-02-15T01:25:22;1.40;99.90
736;DHT22;352;48.626;9.238;2023-02-15T01:27:49;1.30;99.90
736;DHT22;352;48.626;9.238;2023-02-15T01:30:17;1.20;99.90
736;DHT22;352;48.626;9.238;2023-02-15T01:32:44;1.20;99.90
736;DHT22;352;48.626;9.238;2023-02-15T01:35:11;1.20;99.90
736;DHT22;352;48.626;9.238;2023-02-15T01:37:38;1.10;99.90
736;DHT22;352;48.626;9.238;2023-02-15T01:40:07;1.10;99.90
736;DHT22;352;48.626;9.238;2023-02-15T01:42:34;1.10;99.90
736;DHT22;352;48.626;9.238;2023-02-15T01:45:04;1.10;99.90
736;DHT22;352;48.626;9.238;2023-02-15T01:47:36;1.10;99.90
736;DHT22;352;48.626;9.238;2023-02-15T01:50:09;1.00;99.90
736;DHT22;352;48.626;9.238;2023-02-15T01:52:40;1.00;99.90
736;DHT22;352;48.626;9.238;2023-02-15T01:55:10;1.00;99.90
736;DHT22;352;48.626;9.238;2023-02-15T01:57:38;1.00;99.90
736;DHT22;352;48.626;9.238;2023-02-15T02:00:06;1.00;99.90
736;DHT22;352;48.626;9.238;2023-02-15T02:02:36;1.00;99.90
736;DHT22;352;48.626;9.238;2023-02-15T02:05:04;0.90;99.90
736;DHT22;352;48.626;9.238;2023-02-15T02:07:35;0.90;99.90
736;DHT22;352;48.626;9.238;2023-02-15T02:10:04;0.90;99.90
736;DHT22;352;48.626;9.238;2023-02-15T02:12:31;0.80;99.90
736;DHT22;352;48.626;9.238;2023-02-15T02:17:34;0.80;99.90
736;DHT22;352;48.626;9.238;2023-02-15T02:20:30;0.80;99.90
736;DHT22;352;48.626;9.238;2023-02-15T02:23:18;0.80;99.90
736;DHT22;352;48.626;9.238;2023-02-15T02:29:30;0.80;99.90
736;DHT22;352;48.626;9.238;2023-02-15T02:35:24;0.70;99.90
736;DHT22;352;48.626;9.238;2023-02-15T02:38:00;0.70;99.90
736;DHT22;352;48.626;9.238;2023-02-15T02:40:36;0.70;99.90
736;DHT22;352;48.626;9.238;2023-02-15T02:43:11;0.60;99.90
736;DHT22;352;48.626;9.238;2023-02-15T02:45:47;0.60;99.90
736;DHT22;352;48.626;9.238;2023-02-15T02:48:20;0.60;99.90
736;DHT22;352;48.626;9.238;2023-02-15T02:50:49;0.60;99.90
736;DHT22;352;48.626;9.238;2023-02-15T02:53:16;0.60;99.90
736;DHT22;352;48.626;9.238;2023-02-15T02:55:46;0.70;99.90
736;DHT22;352;48.626;9.238;2023-02-15T02:58:16;0.60;99.90
736;DHT22;352;48.626;9.238;2023-02-15T03:00:47;0.60;99.90
736;DHT22;352;48.626;9.238;2023-02-15T03:03:20;0.60;99.90
736;DHT22;352;48.626;9.238;2023-02-15T03:08:23;0.60;99.90
736;DHT22;352;48.626;9.238;2023-02-15T03:10:55;0.60;99.90
736;DHT22;352;48.626;9.238;2023-02-15T03:13:23;0.60;99.90
736;DHT22;352;48.626;9.238;2023-02-15T03:15:51;0.60;99.90
736;DHT22;352;48.626;9.238;2023-02-15T03:18:40;0.60;99.90
736;DHT22;352;48.626;9.238;2023-02-15T03:21:08;0.70;99.90
736;DHT22;352;48.626;9.238;2023-02-15T03:23:51;0.60;99.90
736;DHT22;352;48.626;9.238;2023-02-15T03:26:20;0.60;99.90
736;DHT22;352;48.626;9.238;2023-02-15T03:28:49;0.60;99.90
736;DHT22;352;48.626;9.238;2023-02-15T03:31:18;0.60;99.90
736;DHT22;352;48.626;9.238;2023-02-15T03:33:52;0.50;99.90
736;DHT22;352;48.626;9.238;2023-02-15T03:36:23;0.50;99.90
736;DHT22;352;48.626;9.238;2023-02-15T03:38:57;0.40;99.90
736;DHT22;352;48.626;9.238;2023-02-15T03:41:27;0.40;99.90
736;DHT22;352;48.626;9.238;2023-02-15T03:43:59;0.40;99.90
736;DHT22;352;48.626;9.238;2023-02-15T03:46:32;0.40;99.90
736;DHT22;352;48.626;9.238;2023-02-15T03:49:03;0.50;99.90
736;DHT22;352;48.626;9.238;2023-02-15T03:51:34;1.00;99.90
736;DHT22;352;48.626;9.238;2023-02-15T03:54:07;0.30;99.90
736;DHT22;352;48.626;9.238;2023-02-15T03:56:36;0.30;99.90
736;DHT22;352;48.626;9.238;2023-02-15T03:59:04;0.30;99.90
736;DHT22;352;48.626;9.238;2023-02-15T04:01:58;0.30;99.90
736;DHT22;352;48.626;9.238;2023-02-15T04:04:32;0.30;99.90
736;DHT22;352;48.626;9.238;2023-02-15T04:06:59;0.30;99.90
736;DHT22;352;48.626;9.238;2023-02-15T04:09:27;0.20;99.90
736;DHT22;352;48.626;9.238;2023-02-15T04:12:12;0.20;99.90
736;DHT22;352;48.626;9.238;2023-02-15T04:14:38;0.20;99.90
736;DHT22;352;48.626;9.238;2023-02-15T04:17:22;0.20;99.90
736;DHT22;352;48.626;9.238;2023-02-15T04:19:49;0.20;99.90
736;DHT22;352;48.626;9.238;2023-02-15T04:22:34;0.20;99.90
736;DHT22;352;48.626;9.238;2023-02-15T04:25:20;0.30;99.90
736;DHT22;352;48.626;9.238;2023-02-15T04:27:48;0.30;99.90
736;DHT22;352;48.626;9.238;2023-02-15T04:30:16;0.30;99.90
736;DHT22;352;48.626;9.238;2023-02-15T04:32:43;0.30;99.90
736;DHT22;352;48.626;9.238;2023-02-15T04:35:11;0.30;99.90
736;DHT22;352;48.626;9.238;2023-02-15T04:40:07;0.30;99.90
736;DHT22;352;48.626;9.238;2023-02-15T04:42:36;0.30;99.90
736;DHT22;352;48.626;9.238;2023-02-15T04:45:03;0.30;99.90
736;DHT22;352;48.626;9.238;2023-02-15T04:47:30;0.30;99.90
736;DHT22;352;48.626;9.238;2023-02-15T04:49:56;0.30;99.90
736;DHT22;352;48.626;9.238;2023-02-15T04:52:23;0.30;99.90
736;DHT22;352;48.626;9.238;2023-02-15T04:54:50;0.30;99.90
736;DHT22;352;48.626;9.238;2023-02-15T04:57:16;0.30;99.90
736;DHT22;352;48.626;9.238;2023-02-15T04:59:45;0.30;99.90
736;DHT22;352;48.626;9.238;2023-02-15T05:02:11;0.30;99.90
736;DHT22;352;48.626;9.238;2023-02-15T05:04:38;0.30;99.90
736;DHT22;352;48.626;9.238;2023-02-15T05:07:05;0.30;99.90
736;DHT22;352;48.626;9.238;2023-02-15T05:09:31;0.30;99.90
736;DHT22;352;48.626;9.238;2023-02-15T05:14:25;0.20;99.90
736;DHT22;352;48.626;9.238;2023-02-15T05:16:53;0.20;99.90
736;DHT22;352;48.626;9.238;2023-02-15T05:19:20;0.20;99.90
736;DHT22;352;48.626;9.238;2023-02-15T05:21:48;0.10;99.90
736;DHT22;352;48.626;9.238;2023-02-15T05:24:16;0.00;99.90
736;DHT22;352;48.626;9.238;2023-02-15T05:27:00;0.00;99.90
736;DHT22;352;48.626;9.238;2023-02-15T05:29:44;0.00;99.90
736;DHT22;352;48.626;9.238;2023-02-15T05:32:14;0.00;99.90
736;DHT22;352;48.626;9.238;2023-02-15T05:34:40;0.00;99.90
736;DHT22;352;48.626;9.238;2023-02-15T05:37:07;0.00;99.90
736;DHT22;352;48.626;9.238;2023-02-15T05:39:34;0.00;99.90
736;DHT22;352;48.626;9.238;2023-02-15T05:42:01;0.00;99.90
736;DHT22;352;48.626;9.238;2023-02-15T05:44:27;0.00;99.90
736;DHT22;352;48.626;9.238;2023-02-15T05:46:54;0.00;99.90
736;DHT22;352;48.626;9.238;2023-02-15T05:49:22;0.00;99.90
736;DHT22;352;48.626;9.238;2023-02-15T05:51:49;0.00;99.90
736;DHT22;352;48.626;9.238;2023-02-15T05:54:16;0.00;99.90
736;DHT22;352;48.626;9.238;2023-02-15T05:56:43;0.00;99.90
736;DHT22;352;48.626;9.238;2023-02-15T05:59:09;0.00;99.90
736;DHT22;352;48.626;9.238;2023-02-15T06:01:38;0.00;99.90
736;DHT22;352;48.626;9.238;2023-02-15T06:04:04;0.00;99.90
736;DHT22;352;48.626;9.238;2023-02-15T06:06:32;0.00;99.90
736;DHT22;352;48.626;9.238;2023-02-15T06:08:59;-0.10;99.90
736;DHT22;352;48.626;9.238;2023-02-15T06:11:26;-0.10;99.90
736;DHT22;352;48.626;9.238;2023-02-15T06:13:53;-0.10;99.90
736;DHT22;352;48.626;9.238;2023-02-15T06:16:20;-0.10;99.90
736;DHT22;352;48.626;9.238;2023-02-15T06:18:46;-0.10;99.90
736;DHT22;352;48.626;9.238;2023-02-15T06:21:13;-0.10;99.90
736;DHT22;352;48.626;9.238;2023-02-15T06:23:41;-0.10;99.90
736;DHT22;352;48.626;9.238;2023-02-15T06:26:08;0.00;99.90
736;DHT22;352;48.626;9.238;2023-02-15T06:28:35;-0.10;99.90
736;DHT22;352;48.626;9.238;2023-02-15T06:31:03;-0.10;99.90
736;DHT22;352;48.626;9.238;2023-02-15T06:33:29;-0.20;99.90
736;DHT22;352;48.626;9.238;2023-02-15T06:35:59;-0.20;99.90
736;DHT22;352;48.626;9.238;2023-02-15T06:38:26;-0.10;99.90
736;DHT22;352;48.626;9.238;2023-02-15T06:40:54;-0.10;99.90
736;DHT22;352;48.626;9.238;2023-02-15T06:43:20;-0.20;99.90
736;DHT22;352;48.626;9.238;2023-02-15T06:45:47;-0.10;99.90
736;DHT22;352;48.626;9.238;2023-02-15T06:50:41;-0.10;99.90
736;DHT22;352;48.626;9.238;2023-02-15T06:53:08;-0.10;99.90
736;DHT22;352;48.626;9.238;2023-02-15T06:55:34;0.00;99.90
736;DHT22;352;48.626;9.238;2023-02-15T06:58:02;0.00;99.90
736;DHT22;352;48.626;9.238;2023-02-15T07:00:29;0.10;99.90
736;DHT22;352;48.626;9.238;2023-02-15T07:02:57;0.20;99.90
736;DHT22;352;48.626;9.238;2023-02-15T07:05:24;0.20;99.90
736;DHT22;352;48.626;9.238;2023-02-15T07:07:57;0.30;99.90
736;DHT22;352;48.626;9.238;2023-02-15T07:10:24;0.40;99.90
736;DHT22;352;48.626;9.238;2023-02-15T07:12:50;0.50;99.90
736;DHT22;352;48.626;9.238;2023-02-15T07:15:19;0.50;99.90
736;DHT22;352;48.626;9.238;2023-02-15T07:17:47;0.70;99.90
736;DHT22;352;48.626;9.238;2023-02-15T07:20:16;0.80;99.90
736;DHT22;352;48.626;9.238;2023-02-15T07:22:43;0.90;99.90
736;DHT22;352;48.626;9.238;2023-02-15T07:25:11;1.00;99.90
736;DHT22;352;48.626;9.238;2023-02-15T07:27:39;1.00;99.90
736;DHT22;352;48.626;9.238;2023-02-15T07:30:07;1.10;99.90
736;DHT22;352;48.626;9.238;2023-02-15T07:32:36;1.20;99.90
736;DHT22;352;48.626;9.238;2023-02-15T07:35:23;1.30;99.90
736;DHT22;352;48.626;9.238;2023-02-15T07:37:49;1.50;99.90
736;DHT22;352;48.626;9.238;2023-02-15T07:40:16;1.60;99.90
736;DHT22;352;48.626;9.238;2023-02-15T07:42:43;1.70;99.90
736;DHT22;352;48.626;9.238;2023-02-15T07:45:10;1.80;99.90
736;DHT22;352;48.626;9.238;2023-02-15T07:47:38;1.80;99.90
736;DHT22;352;48.626;9.238;2023-02-15T07:50:05;1.90;99.90
736;DHT22;352;48.626;9.238;2023-02-15T07:52:32;1.90;99.90
736;DHT22;352;48.626;9.238;2023-02-15T07:54:59;2.10;99.90
736;DHT22;352;48.626;9.238;2023-02-15T07:57:26;2.20;99.90
736;DHT22;352;48.626;9.238;2023-02-15T07:59:52;2.40;99.90
736;DHT22;352;48.626;9.238;2023-02-15T08:02:19;2.50;99.90
736;DHT22;352;48.626;9.238;2023-02-15T08:04:47;2.60;99.90
736;DHT22;352;48.626;9.238;2023-02-15T08:07:14;2.70;99.90
736;DHT22;352;48.626;9.238;2023-02-15T08:09:40;2.90;99.90
736;DHT22;352;48.626;9.238;2023-02-15T08:12:07;3.00;99.90
736;DHT22;352;48.626;9.238;2023-02-15T08:14:34;3.10;99.90
736;DHT22;352;48.626;9.238;2023-02-15T08:17:00;3.30;99.90
736;DHT22;352;48.626;9.238;2023-02-15T08:19:29;3.40;99.90
736;DHT22;352;48.626;9.238;2023-02-15T08:22:00;3.60;99.90
736;DHT22;352;48.626;9.238;2023-02-15T08:24:29;3.70;99.90
736;DHT22;352;48.626;9.238;2023-02-15T08:26:57;3.80;99.90
736;DHT22;352;48.626;9.238;2023-02-15T08:29:25;3.90;99.90
736;DHT22;352;48.626;9.238;2023-02-15T08:31:55;4.10;99.90
736;DHT22;352;48.626;9.238;2023-02-15T08:34:24;4.20;99.90
736;DHT22;352;48.626;9.238;2023-02-15T08:36:50;4.40;99.90
736;DHT22;352;48.626;9.238;2023-02-15T08:39:19;4.60;99.90
736;DHT22;352;48.626;9.238;2023-02-15T08:41:47;4.70;99.90
736;DHT22;352;48.626;9.238;2023-02-15T08:44:15;4.80;99.90
736;DHT22;352;48.626;9.238;2023-02-15T08:46:44;4.90;99.90
736;DHT22;352;48.626;9.238;2023-02-15T08:49:14;5.10;99.90
736;DHT22;352;48.626;9.238;2023-02-15T08:51:42;5.20;99.90
736;DHT22;352;48.626;9.238;2023-02-15T08:54:12;5.20;99.90
736;DHT22;352;48.626;9.238;2023-02-15T08:56:41;5.30;99.90
736;DHT22;352;48.626;9.238;2023-02-15T08:59:13;5.40;99.90
736;DHT22;352;48.626;9.238;2023-02-15T09:01:39;5.50;99.90
736;DHT22;352;48.626;9.238;2023-02-15T09:04:07;5.60;99.90
736;DHT22;352;48.626;9.238;2023-02-15T09:06:35;5.70;99.90
736;DHT22;352;48.626;9.238;2023-02-15T09:09:02;5.80;99.90
736;DHT22;352;48.626;9.238;2023-02-15T09:11:33;5.90;99.90
736;DHT22;352;48.626;9.238;2023-02-15T09:14:04;5.90;99.90
736;DHT22;352;48.626;9.238;2023-02-15T09:16:32;6.00;99.90
736;DHT22;352;48.626;9.238;2023-02-15T09:18:59;6.10;99.90
736;DHT22;352;48.626;9.238;2023-02-15T09:21:30;6.20;99.90
736;DHT22;352;48.626;9.238;2023-02-15T09:23:58;6.20;99.90
736;DHT22;352;48.626;9.238;2023-02-15T09:26:26;6.30;99.90
736;DHT22;352;48.626;9.238;2023-02-15T09:28:56;6.50;99.90
736;DHT22;352;48.626;9.238;2023-02-15T09:31:26;6.50;99.90
736;DHT22;352;48.626;9.238;2023-02-15T09:33:53;6.60;99.90
736;DHT22;352;48.626;9.238;2023-02-15T09:36:22;6.80;99.90
736;DHT22;352;48.626;9.238;2023-02-15T09:38:54;6.90;99.90
736;DHT22;352;48.626;9.238;2023-02-15T09:41:36;7.10;99.90
736;DHT22;352;48.626;9.238;2023-02-15T09:44:15;7.30;99.90
736;DHT22;352;48.626;9.238;2023-02-15T09:46:58;7.50;99.90
736;DHT22;352;48.626;9.238;2023-02-15T09:49:35;7.70;99.90
736;DHT22;352;48.626;9.238;2023-02-15T09:52:28;8.10;99.90
736;DHT22;352;48.626;9.238;2023-02-15T09:55:09;9.00;99.90
736;DHT22;352;48.626;9.238;2023-02-15T09:57:46;10.20;99.00
736;DHT22;352;48.626;9.238;2023-02-15T10:00:24;11.80;96.80
736;DHT22;352;48.626;9.238;2023-02-15T10:03:09;13.40;92.70
736;DHT22;352;48.626;9.238;2023-02-15T10:05:47;14.90;91.30
736;DHT22;352;48.626;9.238;2023-02-15T10:11:12;17.40;81.00
736;DHT22;352;48.626;9.238;2023-02-15T10:14:07;18.10;74.20
736;DHT22;352;48.626;9.238;2023-02-15T10:16:45;19.30;72.50
736;DHT22;352;48.626;9.238;2023-02-15T10:19:26;19.60;67.20
736;DHT22;352;48.626;9.238;2023-02-15T10:22:02;20.00;65.40
736;DHT22;352;48.626;9.238;2023-02-15T10:24:43;20.90;63.80
736;DHT22;352;48.626;9.238;2023-02-15T10:27:17;21.70;63.00
736;DHT22;352;48.626;9.238;2023-02-15T10:29:55;22.50;58.40
736;DHT22;352;48.626;9.238;2023-02-15T10:32:27;22.20;57.30
736;DHT22;352;48.626;9.238;2023-02-15T10:35:01;21.70;57.40
736;DHT22;352;48.626;9.238;2023-02-15T10:37:49;21.70;56.40
736;DHT22;352;48.626;9.238;2023-02-15T10:40:25;21.40;56.90
736;DHT22;352;48.626;9.238;2023-02-15T10:45:57;20.20;57.10
736;DHT22;352;48.626;9.238;2023-02-15T10:48:52;19.50;59.10
736;DHT22;352;48.626;9.238;2023-02-15T10:51:29;19.30;59.70
736;DHT22;352;48.626;9.238;2023-02-15T10:54:17;19.00;59.20
736;DHT22;352;48.626;9.238;2023-02-15T10:56:58;19.10;59.50
736;DHT22;352;48.626;9.238;2023-02-15T10:59:36;18.90;59.70
736;DHT22;352;48.626;9.238;2023-02-15T11:02:12;18.50;60.50
736;DHT22;352;48.626;9.238;2023-02-15T11:04:55;18.30;60.80
736;DHT22;352;48.626;9.238;2023-02-15T11:07:29;17.50;62.50
736;DHT22;352;48.626;9.238;2023-02-15T11:10:12;17.00;65.10
736;DHT22;352;48.626;9.238;2023-02-15T11:12:43;16.40;64.70
736;DHT22;352;48.626;9.238;2023-02-15T11:15:16;16.00;67.50
736;DHT22;352;48.626;9.238;2023-02-15T11:17:50;15.60;68.20
736;DHT22;352;48.626;9.238;2023-02-15T11:20:23;15.20;69.40
736;DHT22;352;48.626;9.238;2023-02-15T11:22:53;14.70;70.10
736;DHT22;352;48.626;9.238;2023-02-15T11:25:23;14.20;71.10
736;DHT22;352;48.626;9.238;2023-02-15T11:27:51;13.80;73.70
736;DHT22;352;48.626;9.238;2023-02-15T11:30:20;13.50;75.60
736;DHT22;352;48.626;9.238;2023-02-15T11:32:49;13.30;76.20
736;DHT22;352;48.626;9.238;2023-02-15T11:35:21;13.10;77.80
736;DHT22;352;48.626;9.238;2023-02-15T11:37:57;12.90;78.70
736;DHT22;352;48.626;9.238;2023-02-15T11:40:27;12.80;78.80
736;DHT22;352;48.626;9.238;2023-02-15T11:42:56;12.50;79.20
736;DHT22;352;48.626;9.238;2023-02-15T11:45:28;12.30;79.90
736;DHT22;352;48.626;9.238;2023-02-15T11:47:55;12.20;80.80
736;DHT22;352;48.626;9.238;2023-02-15T11:50:24;12.00;81.50
736;DHT22;352;48.626;9.238;2023-02-15T11:52:52;11.80;83.70
736;DHT22;352;48.626;9.238;2023-02-15T11:55:23;11.80;83.80
736;DHT22;352;48.626;9.238;2023-02-15T11:57:53;11.80;84.70
736;DHT22;352;48.626;9.238;2023-02-15T12:00:26;11.80;84.10
736;DHT22;352;48.626;9.238;2023-02-15T12:02:57;11.70;84.70
736;DHT22;352;48.626;9.238;2023-02-15T12:05:25;11.70;84.80
736;DHT22;352;48.626;9.238;2023-02-15T12:07:55;11.70;85.20
736;DHT22;352;48.626;9.238;2023-02-15T12:10:28;11.80;84.90
736;DHT22;352;48.626;9.238;2023-02-15T12:13:10;11.90;84.80
736;DHT22;352;48.626;9.238;2023-02-15T12:15:38;11.90;83.60
736;DHT22;352;48.626;9.238;2023-02-15T12:18:20;11.90;84.80
736;DHT22;352;48.626;9.238;2023-02-15T12:20:49;11.80;83.60
736;DHT22;352;48.626;9.238;2023-02-15T12:23:17;11.90;84.00
736;DHT22;352;48.626;9.238;2023-02-15T12:25:50;11.90;84.30
736;DHT22;352;48.626;9.238;2023-02-15T12:28:24;12.00;83.20
736;DHT22;352;48.626;9.238;2023-02-15T12:30:53;12.00;83.70
736;DHT22;352;48.626;9.238;2023-02-15T12:33:26;12.10;86.10
736;DHT22;352;48.626;9.238;2023-02-15T12:35:57;12.20;86.80
736;DHT22;352;48.626;9.238;2023-02-15T12:38:26;12.30;87.20
736;DHT22;352;48.626;9.238;2023-02-15T12:41:00;12.30;85.50
736;DHT22;352;48.626;9.238;2023-02-15T12:43:29;12.40;85.50
736;DHT22;352;48.626;9.238;2023-02-15T12:46:14;12.40;85.60
736;DHT22;352;48.626;9.238;2023-02-15T12:48:45;12.40;89.60
736;DHT22;352;48.626;9.238;2023-02-15T12:51:14;12.50;90.20
736;DHT22;352;48.626;9.238;2023-02-15T12:53:42;12.50;90.20
736;DHT22;352;48.626;9.238;2023-02-15T12:56:10;12.60;89.80
736;DHT22;352;48.626;9.238;2023-02-15T12:58:38;12.60;90.10
736;DHT22;352;48.626;9.238;2023-02-15T13:01:14;12.60;91.60
736;DHT22;352;48.626;9.238;2023-02-15T13:03:55;12.70;91.80
736;DHT22;352;48.626;9.238;2023-02-15T13:06:23;12.70;91.30
736;DHT22;352;48.626;9.238;2023-02-15T13:08:51;12.60;92.00
736;DHT22;352;48.626;9.238;2023-02-15T13:11:22;12.60;91.30
736;DHT22;352;48.626;9.238;2023-02-15T13:13:53;12.60;91.00
736;DHT22;352;48.626;9.238;2023-02-15T13:16:26;12.50;91.40
736;DHT22;352;48.626;9.238;2023-02-15T13:18:57;12.60;91.50
736;DHT22;352;48.626;9.238;2023-02-15T13:21:28;12.60;91.50
736;DHT22;352;48.626;9.238;2023-02-15T13:24:01;12.60;91.70
736;DHT22;352;48.626;9.238;2023-02-15T13:26:31;12.70;91.00
736;DHT22;352;48.626;9.238;2023-02-15T13:29:03;12.80;90.80
736;DHT22;352;48.626;9.238;2023-02-15T13:31:35;12.90;90.80
736;DHT22;352;48.626;9.238;2023-02-15T13:34:08;12.90;90.40
736;DHT22;352;48.626;9.238;2023-02-15T13:36:42;13.00;89.80
736;DHT22;352;48.626;9.238;2023-02-15T13:39:20;13.00;89.60
736;DHT22;352;48.626;9.238;2023-02-15T13:41:56;13.00;90.90
736;DHT22;352;48.626;9.238;2023-02-15T13:44:50;13.00;90.00
736;DHT22;352;48.626;9.238;2023-02-15T13:47:23;13.10;89.30
736;DHT22;352;48.626;9.238;2023-02-15T13:50:10;13.10;90.00
736;DHT22;352;48.626;9.238;2023-02-15T13:52:45;13.20;88.70
736;DHT22;352;48.626;9.238;2023-02-15T13:55:37;13.20;89.30
736;DHT22;352;48.626;9.238;2023-02-15T13:58:29;13.30;87.10
736;DHT22;352;48.626;9.238;2023-02-15T14:01:08;13.30;86.20
736;DHT22;352;48.626;9.238;2023-02-15T14:06:37;13.30;87.20
736;DHT22;352;48.626;9.238;2023-02-15T14:09:17;13.40;88.70
736;DHT22;352;48.626;9.238;2023-02-15T14:11:52;13.40;88.50
736;DHT22;352;48.626;9.238;2023-02-15T14:14:41;13.40;88.70
736;DHT22;352;48.626;9.238;2023-02-15T14:17:18;13.50;88.30
736;DHT22;352;48.626;9.238;2023-02-15T14:19:52;13.60;88.00
736;DHT22;352;48.626;9.238;2023-02-15T14:22:27;13.50;88.40
736;DHT22;352;48.626;9.238;2023-02-15T14:25:06;13.50;88.40
736;DHT22;352;48.626;9.238;2023-02-15T14:27:49;13.60;89.00
736;DHT22;352;48.626;9.238;2023-02-15T14:30:21;13.60;87.20
736;DHT22;352;48.626;9.238;2023-02-15T14:32:52;13.60;87.30
736;DHT22;352;48.626;9.238;2023-02-15T14:35:22;13.70;86.80
736;DHT22;352;48.626;9.238;2023-02-15T14:37:54;13.70;85.40
736;DHT22;352;48.626;9.238;2023-02-15T14:40:32;13.70;86.10
736;DHT22;352;48.626;9.238;2023-02-15T14:43:27;13.60;85.30
736;DHT22;352;48.626;9.238;2023-02-15T14:46:02;13.60;84.90
736;DHT22;352;48.626;9.238;2023-02-15T14:48:31;13.50;82.70
736;DHT22;352;48.626;9.238;2023-02-15T14:50:59;13.60;83.30
736;DHT22;352;48.626;9.238;2023-02-15T14:53:36;13.60;84.10
736;DHT22;352;48.626;9.238;2023-02-15T14:56:24;13.60;82.10
736;DHT22;352;48.626;9.238;2023-02-15T14:59:01;13.60;81.90
736;DHT22;352;48.626;9.238;2023-02-15T15:01:37;13.60;82.10
736;DHT22;352;48.626;9.238;2023-02-15T15:04:06;13.50;82.40
736;DHT22;352;48.626;9.238;2023-02-15T15:06:36;13.50;82.60
736;DHT22;352;48.626;9.238;2023-02-15T15:09:11;13.50;83.00
736;DHT22;352;48.626;9.238;2023-02-15T15:11:44;13.40;82.90
736;DHT22;352;48.626;9.238;2023-02-15T15:14:36;13.50;82.60
736;DHT22;352;48.626;9.238;2023-02-15T15:17:06;13.50;81.80
736;DHT22;352;48.626;9.238;2023-02-15T15:20:04;13.40;82.20
736;DHT22;352;48.626;9.238;2023-02-15T15:22:34;13.40;82.80
736;DHT22;352;48.626;9.238;2023-02-15T15:25:03;13.40;84.10
736;DHT22;352;48.626;9.238;2023-02-15T15:27:48;13.40;83.10
736;DHT22;352;48.626;9.238;2023-02-15T15:39:54;13.30;83.00
736;DHT22;352;48.626;9.238;2023-02-15T15:42:32;13.30;84.00
736;DHT22;352;48.626;9.238;2023-02-15T15:45:41;13.30;85.40
736;DHT22;352;48.626;9.238;2023-02-15T15:48:25;13.30;85.60
736;DHT22;352;48.626;9.238;2023-02-15T15:50:53;13.20;85.20
736;DHT22;352;48.626;9.238;2023-02-15T15:53:27;13.10;85.10
736;DHT22;352;48.626;9.238;2023-02-15T15:55:59;13.10;85.30
736;DHT22;352;48.626;9.238;2023-02-15T15:58:28;13.00;85.50
736;DHT22;352;48.626;9.238;2023-02-15T16:00:59;13.00;86.10
736;DHT22;352;48.626;9.238;2023-02-15T16:03:29;12.90;88.20
736;DHT22;352;48.626;9.238;2023-02-15T16:05:56;12.80;90.20
736;DHT22;352;48.626;9.238;2023-02-15T16:08:29;12.70;90.80
736;DHT22;352;48.626;9.238;2023-02-15T16:10:58;12.60;91.40
736;DHT22;352;48.626;9.238;2023-02-15T16:13:26;12.50;91.80
736;DHT22;352;48.626;9.238;2023-02-15T16:15:54;12.50;92.20
736;DHT22;352;48.626;9.238;2023-02-15T16:18:24;12.40;92.40
736;DHT22;352;48.626;9.238;2023-02-15T16:20:55;12.20;92.60
736;DHT22;352;48.626;9.238;2023-02-15T16:23:49;12.40;93.00
736;DHT22;352;48.626;9.238;2023-02-15T16:26:31;11.90;93.00
736;DHT22;352;48.626;9.238;2023-02-15T16:29:00;11.80;93.20
736;DHT22;352;48.626;9.238;2023-02-15T16:31:27;11.60;93.40
736;DHT22;352;48.626;9.238;2023-02-15T16:33:54;11.50;93.60
736;DHT22;352;48.626;9.238;2023-02-15T16:36:22;11.40;93.90
736;DHT22;352;48.626;9.238;2023-02-15T16:39:17;11.30;94.10
736;DHT22;352;48.626;9.238;2023-02-15T16:41:45;11.20;94.20
736;DHT22;352;48.626;9.238;2023-02-15T16:44:16;11.10;94.10
736;DHT22;352;48.626;9.238;2023-02-15T16:46:46;11.00;94.10
736;DHT22;352;48.626;9.238;2023-02-15T16:49:16;10.90;94.00
736;DHT22;352;48.626;9.238;2023-02-15T16:51:44;10.80;94.00
736;DHT22;352;48.626;9.238;2023-02-15T16:54:19;10.70;94.00
736;DHT22;352;48.626;9.238;2023-02-15T16:56:47;10.60;94.00
736;DHT22;352;48.626;9.238;2023-02-15T16:59:22;10.50;94.10
736;DHT22;352;48.626;9.238;2023-02-15T17:01:53;10.40;94.20
736;DHT22;352;48.626;9.238;2023-02-15T17:04:27;10.20;94.30
736;DHT22;352;48.626;9.238;2023-02-15T17:06:58;10.20;94.60
736;DHT22;352;48.626;9.238;2023-02-15T17:09:27;10.00;94.60
736;DHT22;352;48.626;9.238;2023-02-15T17:11:55;10.00;94.80
736;DHT22;352;48.626;9.238;2023-02-15T17:14:27;9.90;95.50
736;DHT22;352;48.626;9.238;2023-02-15T17:17:00;9.80;95.70
736;DHT22;352;48.626;9.238;2023-02-15T17:19:29;9.80;95.80
736;DHT22;352;48.626;9.238;2023-02-15T17:21:59;9.70;95.90
736;DHT22;352;48.626;9.238;2023-02-15T17:24:37;9.60;96.10
736;DHT22;352;48.626;9.238;2023-02-15T17:27:07;9.50;96.20
736;DHT22;352;48.626;9.238;2023-02-15T17:29:39;9.50;96.30
736;DHT22;352;48.626;9.238;2023-02-15T17:32:14;9.40;96.40
736;DHT22;352;48.626;9.238;2023-02-15T17:34:49;9.30;96.60
736;DHT22;352;48.626;9.238;2023-02-15T17:37:25;9.30;96.80
736;DHT22;352;48.626;9.238;2023-02-15T17:39:54;9.20;96.90
736;DHT22;352;48.626;9.238;2023-02-15T17:42:21;9.10;97.00
736;DHT22;352;48.626;9.238;2023-02-15T17:44:48;9.10;97.10
736;DHT22;352;48.626;9.238;2023-02-15T17:47:16;9.00;97.20
736;DHT22;352;48.626;9.238;2023-02-15T17:49:45;8.90;97.30
736;DHT22;352;48.626;9.238;2023-02-15T17:52:15;8.80;97.30
736;DHT22;352;48.626;9.238;2023-02-15T17:54:42;8.80;97.50
736;DHT22;352;48.626;9.238;2023-02-15T17:57:28;8.70;97.60